FR-0242 weather

Saint Rémy de Maurienne
Rhône Alpes, France

Public forecast

Using degrees Celsius for public forecast. Weather courtesy of forecast.io.

METAR (pilot weather report)

Closest report is Chambéry-Savoie Airport, 22.9 nm (42.4 km) NW. Retrieved 2019/09/21 02:30 UTC (0 seconds ago):

LFLB 210230Z AUTO 29004KT 250V320 9999 FEW039 13/10 Q1021 NOSIG

TAF (pilot weather forecast)

Forecast is more than 12 hours old.

Closest forecast is Chambéry-Savoie Airport, 22.9 nm (42.4 km) NW. Retrieved 2019/09/20 00:21 UTC (1 day ago):

TAF LFLB 202300Z 2100/2124 VRB03KT CAVOK TEMPO 2100/2104 36010KT